首页
METAR-TAF:

METAR-TAF

机场 :

Tekamah Municipal Airport

Tekamah, 內布拉斯加州, 美国

纬度: 41-46-01N, 经度: 096-10-40W, 海拔: 313米

当前天气观测

该预报发布于30分钟前的19:54 UTC
静风
温度 -1°C
湿度 86%
气压 1021 hPa
能見度: 6.4公里
阴天层高于700英尺
轻雾

METAR: KTQE 291954Z AUTO 00000KT 4SM BR OVC007 M01/M03 A3016 RMK AO2 SLP223 T10111028

时间: 14:24 (20:24 UTC)


TAF: 丢失

超过4000个机场的气象观测和天气预报(METAR&TAF报告)。

可查询的气象台以黄色和红色小点在地图上表示。

将鼠标移到小点上方,可查看气象台名称。

然后点击查看天气观测和预报。

如需切换地图:点击带黑十字的绿色按钮放大地图;点击带横线的绿色按钮缩小地图;或者点击绿色箭头查看邻近地区的地图。


METAR-TAF: